KVSF/VSF METAR and TAF weather

Enter ICAO airport designator
Station Type Date Time Source
KVSF METAR 2021/09/16 20:54 UTC NOAA

KVSF 162054Z AUTO 14007KT 10SM CLR 23/16 A3026 RMK AO2 SLP246 T02280156 55008


Station Type Date Time Source
KVSF Decoded METAR 2021/09/16 20:54 UTC NOAA

HARTNESS STATE AIRPORT, VT, United States (KVSF) 43-21N 72-31W 175M
Sep 16, 2021 - 04:54 PM EDT / 2021.09.16 2054 UTC
Wind: from the SE (140 degrees) at 8 MPH (7 KT):0
Visibility: 10 mile(s):0
Sky conditions: clear
Temperature: 73.0 F (22.8 C)
Dew Point: 60.1 F (15.6 C)
Relative Humidity: 63%
Pressure (altimeter): 30.26 in. Hg (1024 hPa)
Pressure tendency: 0.02 inches (0.8 hPa) lower than three hours ago
ob: KVSF 162054Z AUTO 14007KT 10SM CLR 23/16 A3026 RMK AO2 SLP246 T02280156 55008
cycle: 21

Station Type Date Time Source
KVSF TAF UTC NOAA

Error!

Example: see airport list